sensor_id;sensor_type;location;lat;lon;timestamp;pressure;altitude;pressure_sealevel;temperature;humidity
5703;BME280;2876;51.738;10.050;2023-09-19T00:00:00;98443.03;;;15.95;100.00
5703;BME280;2876;51.738;10.050;2023-09-19T00:06:04;98463.69;;;16.07;100.00
5703;BME280;2876;51.738;10.050;2023-09-19T00:12:09;98461.75;;;16.02;100.00
5703;BME280;2876;51.738;10.050;2023-09-19T00:18:11;98466.03;;;15.98;100.00
5703;BME280;2876;51.738;10.050;2023-09-19T00:24:16;98464.63;;;15.90;100.00
5703;BME280;2876;51.738;10.050;2023-09-19T00:30:20;98477.16;;;16.02;100.00
5703;BME280;2876;51.738;10.050;2023-09-19T00:36:25;98478.34;;;16.11;100.00
5703;BME280;2876;51.738;10.050;2023-09-19T00:42:27;98492.59;;;16.33;100.00
5703;BME280;2876;51.738;10.050;2023-09-19T00:48:30;98501.22;;;16.30;100.00
5703;BME280;2876;51.738;10.050;2023-09-19T00:54:32;98495.66;;;16.42;100.00
5703;BME280;2876;51.738;10.050;2023-09-19T01:00:36;98496.81;;;16.51;100.00
5703;BME280;2876;51.738;10.050;2023-09-19T01:06:41;98496.84;;;16.56;100.00
5703;BME280;2876;51.738;10.050;2023-09-19T01:13:26;98517.47;;;16.30;100.00
5703;BME280;2876;51.738;10.050;2023-09-19T01:32:51;98519.22;;;15.87;100.00
5703;BME280;2876;51.738;10.050;2023-09-19T01:38:54;98526.19;;;15.83;100.00
5703;BME280;2876;51.738;10.050;2023-09-19T01:45:12;98530.78;;;15.83;100.00
5703;BME280;2876;51.738;10.050;2023-09-19T01:51:26;98532.75;;;15.65;100.00
5703;BME280;2876;51.738;10.050;2023-09-19T01:58:01;98542.06;;;15.75;100.00
5703;BME280;2876;51.738;10.050;2023-09-19T02:04:07;98540.44;;;15.57;100.00
5703;BME280;2876;51.738;10.050;2023-09-19T02:10:09;98551.16;;;15.46;100.00
5703;BME280;2876;51.738;10.050;2023-09-19T02:16:16;98554.41;;;15.48;100.00
5703;BME280;2876;51.738;10.050;2023-09-19T02:22:19;98571.06;;;15.40;100.00
5703;BME280;2876;51.738;10.050;2023-09-19T02:28:21;98565.84;;;15.56;100.00
5703;BME280;2876;51.738;10.050;2023-09-19T02:34:26;98574.41;;;15.47;100.00
5703;BME280;2876;51.738;10.050;2023-09-19T02:40:32;98571.88;;;15.41;100.00
5703;BME280;2876;51.738;10.050;2023-09-19T02:46:37;98576.69;;;15.39;100.00
5703;BME280;2876;51.738;10.050;2023-09-19T02:52:42;98592.44;;;15.25;100.00
5703;BME280;2876;51.738;10.050;2023-09-19T02:58:52;98591.25;;;15.55;100.00
5703;BME280;2876;51.738;10.050;2023-09-19T03:04:54;98605.88;;;15.76;100.00
5703;BME280;2876;51.738;10.050;2023-09-19T03:10:58;98616.69;;;15.76;100.00
5703;BME280;2876;51.738;10.050;2023-09-19T03:17:02;98613.56;;;15.45;100.00
5703;BME280;2876;51.738;10.050;2023-09-19T03:23:08;98624.94;;;15.47;100.00
5703;BME280;2876;51.738;10.050;2023-09-19T03:29:17;98627.16;;;15.67;98.68
5703;BME280;2876;51.738;10.050;2023-09-19T03:35:20;98626.88;;;15.68;97.85
5703;BME280;2876;51.738;10.050;2023-09-19T03:41:22;98630.78;;;15.61;95.07
5703;BME280;2876;51.738;10.050;2023-09-19T03:47:24;98627.22;;;15.55;93.27
5703;BME280;2876;51.738;10.050;2023-09-19T03:53:26;98623.19;;;15.58;92.78
5703;BME280;2876;51.738;10.050;2023-09-19T03:59:27;98621.75;;;15.67;93.13
5703;BME280;2876;51.738;10.050;2023-09-19T04:05:31;98623.03;;;15.64;93.97
5703;BME280;2876;51.738;10.050;2023-09-19T04:11:35;98634.84;;;15.58;94.86
5703;BME280;2876;51.738;10.050;2023-09-19T04:17:38;98644.47;;;15.71;96.22
5703;BME280;2876;51.738;10.050;2023-09-19T04:23:41;98662.00;;;15.85;94.16
5703;BME280;2876;51.738;10.050;2023-09-19T04:29:43;98667.63;;;15.84;93.19
5703;BME280;2876;51.738;10.050;2023-09-19T04:35:45;98671.94;;;15.63;94.20
5703;BME280;2876;51.738;10.050;2023-09-19T04:41:46;98680.47;;;15.55;92.22
5703;BME280;2876;51.738;10.050;2023-09-19T04:47:50;98670.06;;;15.46;92.13
5703;BME280;2876;51.738;10.050;2023-09-19T04:53:52;98666.31;;;15.31;92.76
5703;BME280;2876;51.738;10.050;2023-09-19T04:59:54;98671.81;;;15.36;92.50
5703;BME280;2876;51.738;10.050;2023-09-19T05:05:56;98669.59;;;15.33;93.28
5703;BME280;2876;51.738;10.050;2023-09-19T05:11:57;98672.88;;;15.18;93.65
5703;BME280;2876;51.738;10.050;2023-09-19T05:18:00;98680.31;;;15.11;93.99
5703;BME280;2876;51.738;10.050;2023-09-19T05:24:03;98697.41;;;15.16;93.70
5703;BME280;2876;51.738;10.050;2023-09-19T05:30:06;98695.53;;;15.00;94.75
5703;BME280;2876;51.738;10.050;2023-09-19T05:36:11;98711.72;;;15.00;93.96
5703;BME280;2876;51.738;10.050;2023-09-19T05:42:13;98718.72;;;15.13;93.77
5703;BME280;2876;51.738;10.050;2023-09-19T05:48:15;98724.41;;;15.00;92.55
5703;BME280;2876;51.738;10.050;2023-09-19T05:54:18;98732.53;;;15.00;93.27
5703;BME280;2876;51.738;10.050;2023-09-19T06:00:24;98747.56;;;14.95;92.29
5703;BME280;2876;51.738;10.050;2023-09-19T06:06:26;98758.38;;;15.12;92.09
5703;BME280;2876;51.738;10.050;2023-09-19T06:12:32;98769.88;;;15.19;91.72
5703;BME280;2876;51.738;10.050;2023-09-19T06:18:39;98773.78;;;15.12;91.00
5703;BME280;2876;51.738;10.050;2023-09-19T06:24:41;98782.56;;;15.19;90.25
5703;BME280;2876;51.738;10.050;2023-09-19T06:30:48;98782.00;;;15.34;88.61
5703;BME280;2876;51.738;10.050;2023-09-19T06:36:51;98786.28;;;15.46;85.80
5703;BME280;2876;51.738;10.050;2023-09-19T06:42:54;98800.97;;;15.84;84.62
5703;BME280;2876;51.738;10.050;2023-09-19T06:48:58;98817.78;;;16.64;80.51
5703;BME280;2876;51.738;10.050;2023-09-19T06:55:00;98824.28;;;17.93;74.66
5703;BME280;2876;51.738;10.050;2023-09-19T07:01:02;98832.63;;;18.66;71.76
5703;BME280;2876;51.738;10.050;2023-09-19T07:07:05;98822.53;;;19.29;68.13
5703;BME280;2876;51.738;10.050;2023-09-19T07:13:10;98836.22;;;18.71;68.54
5703;BME280;2876;51.738;10.050;2023-09-19T07:19:12;98829.13;;;18.70;66.23
5703;BME280;2876;51.738;10.050;2023-09-19T07:25:17;98818.31;;;17.59;70.64
5703;BME280;2876;51.738;10.050;2023-09-19T07:31:19;98823.00;;;16.70;75.02
5703;BME280;2876;51.738;10.050;2023-09-19T07:37:25;98823.75;;;16.83;76.78
5703;BME280;2876;51.738;10.050;2023-09-19T07:43:28;98820.91;;;16.94;77.79
5703;BME280;2876;51.738;10.050;2023-09-19T07:49:30;98819.06;;;17.00;75.77
5703;BME280;2876;51.738;10.050;2023-09-19T07:55:32;98823.03;;;16.92;75.59
5703;BME280;2876;51.738;10.050;2023-09-19T08:01:36;98837.16;;;16.94;72.98
5703;BME280;2876;51.738;10.050;2023-09-19T08:07:41;98839.88;;;16.72;74.14
5703;BME280;2876;51.738;10.050;2023-09-19T08:13:48;98849.91;;;16.72;72.54
5703;BME280;2876;51.738;10.050;2023-09-19T08:19:51;98857.06;;;16.83;74.04
5703;BME280;2876;51.738;10.050;2023-09-19T08:25:57;98857.16;;;17.15;71.46
5703;BME280;2876;51.738;10.050;2023-09-19T08:32:02;98857.44;;;17.14;71.69
5703;BME280;2876;51.738;10.050;2023-09-19T08:38:04;98863.78;;;17.03;72.25
5703;BME280;2876;51.738;10.050;2023-09-19T08:44:10;98852.84;;;17.41;71.35
5703;BME280;2876;51.738;10.050;2023-09-19T08:50:22;98843.88;;;17.95;69.86
5703;BME280;2876;51.738;10.050;2023-09-19T08:56:29;98856.03;;;18.30;70.13
5703;BME280;2876;51.738;10.050;2023-09-19T09:02:31;98866.84;;;18.19;68.80
5703;BME280;2876;51.738;10.050;2023-09-19T09:08:35;98858.13;;;18.60;69.25
5703;BME280;2876;51.738;10.050;2023-09-19T09:14:38;98872.22;;;19.04;66.23
5703;BME280;2876;51.738;10.050;2023-09-19T09:20:40;98875.59;;;19.32;66.12
5703;BME280;2876;51.738;10.050;2023-09-19T09:26:42;98877.63;;;20.08;63.82
5703;BME280;2876;51.738;10.050;2023-09-19T09:32:45;98876.22;;;20.56;64.35
5703;BME280;2876;51.738;10.050;2023-09-19T09:39:07;98882.09;;;20.99;61.43
5703;BME280;2876;51.738;10.050;2023-09-19T09:45:22;98873.53;;;19.90;63.44
5703;BME280;2876;51.738;10.050;2023-09-19T09:51:40;98868.63;;;20.12;63.95
5703;BME280;2876;51.738;10.050;2023-09-19T09:57:46;98863.09;;;20.73;60.07
5703;BME280;2876;51.738;10.050;2023-09-19T10:03:47;98877.38;;;21.15;58.32
5703;BME280;2876;51.738;10.050;2023-09-19T10:09:50;98883.22;;;19.40;63.83
5703;BME280;2876;51.738;10.050;2023-09-19T10:15:55;98872.25;;;19.14;64.51
5703;BME280;2876;51.738;10.050;2023-09-19T10:21:59;98884.34;;;18.76;66.91
5703;BME280;2876;51.738;10.050;2023-09-19T10:28:06;98891.03;;;18.63;66.70
5703;BME280;2876;51.738;10.050;2023-09-19T10:34:18;98895.06;;;19.03;66.52
5703;BME280;2876;51.738;10.050;2023-09-19T10:40:21;98874.28;;;19.49;63.35
5703;BME280;2876;51.738;10.050;2023-09-19T10:46:28;98879.22;;;20.24;61.49
5703;BME280;2876;51.738;10.050;2023-09-19T10:52:31;98881.66;;;20.46;61.98
5703;BME280;2876;51.738;10.050;2023-09-19T10:58:36;98885.25;;;21.32;57.96
5703;BME280;2876;51.738;10.050;2023-09-19T11:04:42;98872.34;;;20.72;58.06
5703;BME280;2876;51.738;10.050;2023-09-19T11:10:51;98867.44;;;20.69;58.75
5703;BME280;2876;51.738;10.050;2023-09-19T11:23:19;98871.06;;;20.09;59.26
5703;BME280;2876;51.738;10.050;2023-09-19T11:29:29;98873.78;;;20.14;59.04
5703;BME280;2876;51.738;10.050;2023-09-19T11:36:11;98868.06;;;20.10;58.75
5703;BME280;2876;51.738;10.050;2023-09-19T11:42:47;98860.16;;;20.19;58.26
5703;BME280;2876;51.738;10.050;2023-09-19T11:49:08;98867.81;;;19.86;60.42
5703;BME280;2876;51.738;10.050;2023-09-19T11:55:15;98867.00;;;19.81;59.55
5703;BME280;2876;51.738;10.050;2023-09-19T12:01:23;98862.91;;;20.09;57.14
5703;BME280;2876;51.738;10.050;2023-09-19T12:07:26;98859.88;;;20.25;56.90
5703;BME280;2876;51.738;10.050;2023-09-19T12:13:28;98862.53;;;21.41;54.25
5703;BME280;2876;51.738;10.050;2023-09-19T12:19:33;98857.22;;;22.58;48.73
5703;BME280;2876;51.738;10.050;2023-09-19T12:25:45;98872.44;;;22.93;48.62
5703;BME280;2876;51.738;10.050;2023-09-19T12:31:54;98873.72;;;23.62;47.69
5703;BME280;2876;51.738;10.050;2023-09-19T12:37:59;98869.38;;;22.70;47.20
5703;BME280;2876;51.738;10.050;2023-09-19T12:44:01;98848.66;;;22.40;47.36
5703;BME280;2876;51.738;10.050;2023-09-19T12:50:15;98863.38;;;22.44;46.02
5703;BME280;2876;51.738;10.050;2023-09-19T12:56:20;98859.13;;;21.99;48.94
5703;BME280;2876;51.738;10.050;2023-09-19T13:02:24;98854.56;;;20.90;51.00
5703;BME280;2876;51.738;10.050;2023-09-19T13:14:40;98850.72;;;21.90;48.63
5703;BME280;2876;51.738;10.050;2023-09-19T13:21:06;98834.72;;;22.13;47.81
5703;BME280;2876;51.738;10.050;2023-09-19T13:27:24;98834.66;;;21.84;48.74
5703;BME280;2876;51.738;10.050;2023-09-19T13:33:26;98831.13;;;23.51;46.61
5703;BME280;2876;51.738;10.050;2023-09-19T13:39:28;98819.16;;;22.85;45.97
5703;BME280;2876;51.738;10.050;2023-09-19T13:45:30;98814.38;;;22.48;47.15
5703;BME280;2876;51.738;10.050;2023-09-19T13:51:32;98819.09;;;22.18;48.96
5703;BME280;2876;51.738;10.050;2023-09-19T13:57:34;98804.38;;;23.99;45.65
5703;BME280;2876;51.738;10.050;2023-09-19T14:03:36;98820.59;;;25.84;42.11
5703;BME280;2876;51.738;10.050;2023-09-19T14:09:38;98809.25;;;25.40;40.90
5703;BME280;2876;51.738;10.050;2023-09-19T14:15:40;98811.06;;;24.81;42.68
5703;BME280;2876;51.738;10.050;2023-09-19T14:21:44;98796.84;;;24.51;43.36
5703;BME280;2876;51.738;10.050;2023-09-19T14:27:47;98798.59;;;23.68;44.86
5703;BME280;2876;51.738;10.050;2023-09-19T14:33:56;98791.94;;;22.51;47.77
5703;BME280;2876;51.738;10.050;2023-09-19T14:40:01;98785.66;;;24.48;44.90
5703;BME280;2876;51.738;10.050;2023-09-19T14:46:08;98789.19;;;25.98;40.51
5703;BME280;2876;51.738;10.050;2023-09-19T14:52:12;98796.19;;;28.23;36.96
5703;BME280;2876;51.738;10.050;2023-09-19T14:58:17;98811.84;;;27.41;38.33
5703;BME280;2876;51.738;10.050;2023-09-19T15:04:20;98808.59;;;25.79;41.83
5703;BME280;2876;51.738;10.050;2023-09-19T15:10:23;98799.41;;;24.01;45.38
5703;BME280;2876;51.738;10.050;2023-09-19T15:16:25;98787.72;;;23.07;47.68
5703;BME280;2876;51.738;10.050;2023-09-19T15:22:27;98779.28;;;23.92;46.50
5703;BME280;2876;51.738;10.050;2023-09-19T15:28:30;98794.97;;;25.16;44.30
5703;BME280;2876;51.738;10.050;2023-09-19T15:34:33;98797.75;;;24.47;43.98
5703;BME280;2876;51.738;10.050;2023-09-19T15:40:35;98797.38;;;24.53;44.52
5703;BME280;2876;51.738;10.050;2023-09-19T15:46:37;98802.91;;;25.53;40.94
5703;BME280;2876;51.738;10.050;2023-09-19T15:52:40;98809.63;;;25.47;41.66
5703;BME280;2876;51.738;10.050;2023-09-19T15:58:47;98794.69;;;25.98;40.63
5703;BME280;2876;51.738;10.050;2023-09-19T16:04:49;98799.69;;;26.27;40.26
5703;BME280;2876;51.738;10.050;2023-09-19T16:10:51;98788.50;;;26.24;39.16
5703;BME280;2876;51.738;10.050;2023-09-19T16:16:53;98795.78;;;26.28;39.94
5703;BME280;2876;51.738;10.050;2023-09-19T16:22:56;98808.31;;;25.45;41.22
5703;BME280;2876;51.738;10.050;2023-09-19T16:28:58;98802.84;;;25.09;40.86
5703;BME280;2876;51.738;10.050;2023-09-19T16:35:04;98793.50;;;23.05;45.01
5703;BME280;2876;51.738;10.050;2023-09-19T16:41:07;98806.88;;;21.76;49.22
5703;BME280;2876;51.738;10.050;2023-09-19T16:47:13;98812.16;;;20.64;51.94
5703;BME280;2876;51.738;10.050;2023-09-19T16:53:16;98803.22;;;20.27;54.79
5703;BME280;2876;51.738;10.050;2023-09-19T16:59:21;98816.34;;;20.05;56.11
5703;BME280;2876;51.738;10.050;2023-09-19T17:05:25;98816.06;;;19.71;57.98
5703;BME280;2876;51.738;10.050;2023-09-19T17:11:28;98819.84;;;19.49;59.50
5703;BME280;2876;51.738;10.050;2023-09-19T17:17:31;98807.03;;;19.24;59.54
5703;BME280;2876;51.738;10.050;2023-09-19T17:23:33;98818.72;;;19.25;57.29
5703;BME280;2876;51.738;10.050;2023-09-19T17:29:35;98818.34;;;18.86;60.90
5703;BME280;2876;51.738;10.050;2023-09-19T17:35:38;98809.13;;;18.97;58.20
5703;BME280;2876;51.738;10.050;2023-09-19T17:41:40;98807.22;;;18.92;57.59
5703;BME280;2876;51.738;10.050;2023-09-19T17:47:43;98807.84;;;18.57;60.93
5703;BME280;2876;51.738;10.050;2023-09-19T17:53:46;98799.25;;;18.70;59.26
5703;BME280;2876;51.738;10.050;2023-09-19T17:59:48;98798.44;;;18.17;61.57
5703;BME280;2876;51.738;10.050;2023-09-19T18:05:53;98812.09;;;18.33;61.18
5703;BME280;2876;51.738;10.050;2023-09-19T18:11:55;98816.16;;;17.93;63.13
5703;BME280;2876;51.738;10.050;2023-09-19T18:17:59;98824.50;;;17.81;63.82
5703;BME280;2876;51.738;10.050;2023-09-19T18:24:01;98821.03;;;17.91;64.16
5703;BME280;2876;51.738;10.050;2023-09-19T18:30:07;98824.06;;;17.67;65.22
5703;BME280;2876;51.738;10.050;2023-09-19T18:36:10;98836.00;;;17.98;62.97
5703;BME280;2876;51.738;10.050;2023-09-19T18:42:12;98848.53;;;17.72;64.50
5703;BME280;2876;51.738;10.050;2023-09-19T18:48:14;98841.66;;;17.92;64.41
5703;BME280;2876;51.738;10.050;2023-09-19T18:54:17;98840.72;;;17.76;65.68
5703;BME280;2876;51.738;10.050;2023-09-19T19:00:19;98848.19;;;17.64;66.08
5703;BME280;2876;51.738;10.050;2023-09-19T19:06:27;98843.19;;;17.78;65.48
5703;BME280;2876;51.738;10.050;2023-09-19T19:12:34;98845.31;;;17.48;66.08
5703;BME280;2876;51.738;10.050;2023-09-19T19:18:38;98839.03;;;17.43;66.77
5703;BME280;2876;51.738;10.050;2023-09-19T19:24:40;98854.41;;;17.64;65.43
5703;BME280;2876;51.738;10.050;2023-09-19T19:30:46;98845.16;;;17.33;67.34
5703;BME280;2876;51.738;10.050;2023-09-19T19:36:48;98854.03;;;17.50;66.58
5703;BME280;2876;51.738;10.050;2023-09-19T19:42:50;98855.47;;;17.31;68.29
5703;BME280;2876;51.738;10.050;2023-09-19T19:48:55;98854.97;;;17.39;66.54
5703;BME280;2876;51.738;10.050;2023-09-19T19:55:00;98856.63;;;17.40;66.31
5703;BME280;2876;51.738;10.050;2023-09-19T20:01:03;98863.59;;;17.31;66.68
5703;BME280;2876;51.738;10.050;2023-09-19T20:07:10;98860.31;;;17.29;66.95
5703;BME280;2876;51.738;10.050;2023-09-19T20:13:12;98844.56;;;17.26;67.15
5703;BME280;2876;51.738;10.050;2023-09-19T20:19:15;98863.66;;;17.14;67.16
5703;BME280;2876;51.738;10.050;2023-09-19T20:25:18;98858.50;;;17.13;67.73
5703;BME280;2876;51.738;10.050;2023-09-19T20:31:22;98872.75;;;17.52;66.00
5703;BME280;2876;51.738;10.050;2023-09-19T20:37:25;98853.47;;;17.21;68.07
5703;BME280;2876;51.738;10.050;2023-09-19T20:43:31;98863.72;;;17.19;68.98
5703;BME280;2876;51.738;10.050;2023-09-19T20:49:34;98864.53;;;17.20;68.68
5703;BME280;2876;51.738;10.050;2023-09-19T20:55:39;98858.63;;;17.23;68.79
5703;BME280;2876;51.738;10.050;2023-09-19T21:01:42;98857.34;;;17.31;69.02
5703;BME280;2876;51.738;10.050;2023-09-19T21:07:44;98859.72;;;17.49;68.08
5703;BME280;2876;51.738;10.050;2023-09-19T21:13:48;98851.47;;;17.71;67.75
5703;BME280;2876;51.738;10.050;2023-09-19T21:19:50;98847.13;;;17.70;66.25
5703;BME280;2876;51.738;10.050;2023-09-19T21:25:55;98855.34;;;17.75;67.54
5703;BME280;2876;51.738;10.050;2023-09-19T21:31:57;98845.94;;;17.83;67.43
5703;BME280;2876;51.738;10.050;2023-09-19T21:37:59;98845.47;;;17.91;68.05
5703;BME280;2876;51.738;10.050;2023-09-19T21:44:01;98828.13;;;17.65;68.61
5703;BME280;2876;51.738;10.050;2023-09-19T21:50:05;98824.91;;;17.41;69.01
5703;BME280;2876;51.738;10.050;2023-09-19T21:56:08;98819.31;;;17.53;69.16
5703;BME280;2876;51.738;10.050;2023-09-19T22:02:11;98817.53;;;17.63;69.75
5703;BME280;2876;51.738;10.050;2023-09-19T22:08:13;98821.44;;;17.45;69.28
5703;BME280;2876;51.738;10.050;2023-09-19T22:14:15;98825.88;;;17.30;70.84
5703;BME280;2876;51.738;10.050;2023-09-19T22:20:17;98818.41;;;17.15;72.07
5703;BME280;2876;51.738;10.050;2023-09-19T22:26:30;98826.34;;;17.21;71.14
5703;BME280;2876;51.738;10.050;2023-09-19T22:32:34;98821.34;;;17.08;71.47
5703;BME280;2876;51.738;10.050;2023-09-19T22:38:37;98812.38;;;17.35;70.67
5703;BME280;2876;51.738;10.050;2023-09-19T22:44:40;98825.28;;;17.49;69.74
5703;BME280;2876;51.738;10.050;2023-09-19T22:50:43;98827.00;;;17.34;71.39
5703;BME280;2876;51.738;10.050;2023-09-19T22:56:48;98830.34;;;17.41;70.85
5703;BME280;2876;51.738;10.050;2023-09-19T23:02:54;98826.47;;;17.32;72.13
5703;BME280;2876;51.738;10.050;2023-09-19T23:08:57;98821.59;;;17.34;72.50
5703;BME280;2876;51.738;10.050;2023-09-19T23:15:01;98834.63;;;17.37;71.87
5703;BME280;2876;51.738;10.050;2023-09-19T23:21:13;98815.03;;;17.30;73.21
5703;BME280;2876;51.738;10.050;2023-09-19T23:27:20;98820.78;;;17.33;72.64
5703;BME280;2876;51.738;10.050;2023-09-19T23:33:35;98810.75;;;17.34;73.70
5703;BME280;2876;51.738;10.050;2023-09-19T23:39:37;98835.91;;;17.56;72.23
5703;BME280;2876;51.738;10.050;2023-09-19T23:45:42;98845.44;;;17.59;73.04
5703;BME280;2876;51.738;10.050;2023-09-19T23:51:46;98852.25;;;17.66;72.57
5703;BME280;2876;51.738;10.050;2023-09-19T23:57:49;98838.25;;;17.74;72.34
